sensor_id;sensor_type;location;lat;lon;timestamp;temperature;humidity
21906;DHT22;11117;48.644;9.006;2023-11-19T00:00:51;8.60;99.90
21906;DHT22;11117;48.644;9.006;2023-11-19T00:03:17;8.50;99.90
21906;DHT22;11117;48.644;9.006;2023-11-19T00:05:42;8.50;99.90
21906;DHT22;11117;48.644;9.006;2023-11-19T00:08:08;8.40;99.90
21906;DHT22;11117;48.644;9.006;2023-11-19T00:10:33;8.50;99.90
21906;DHT22;11117;48.644;9.006;2023-11-19T00:12:59;8.40;99.90
21906;DHT22;11117;48.644;9.006;2023-11-19T00:15:24;8.50;99.90
21906;DHT22;11117;48.644;9.006;2023-11-19T00:17:50;8.40;99.90
21906;DHT22;11117;48.644;9.006;2023-11-19T00:20:17;8.40;99.90
21906;DHT22;11117;48.644;9.006;2023-11-19T00:22:43;8.50;99.90
21906;DHT22;11117;48.644;9.006;2023-11-19T00:25:09;8.50;99.90
21906;DHT22;11117;48.644;9.006;2023-11-19T00:27:35;8.40;99.90
21906;DHT22;11117;48.644;9.006;2023-11-19T00:30:01;8.40;99.90
21906;DHT22;11117;48.644;9.006;2023-11-19T00:32:26;8.30;99.90
21906;DHT22;11117;48.644;9.006;2023-11-19T00:34:52;8.30;99.90
21906;DHT22;11117;48.644;9.006;2023-11-19T00:37:17;8.30;99.90
21906;DHT22;11117;48.644;9.006;2023-11-19T00:39:43;8.30;99.90
21906;DHT22;11117;48.644;9.006;2023-11-19T00:42:09;8.30;99.90
21906;DHT22;11117;48.644;9.006;2023-11-19T00:44:35;8.40;99.90
21906;DHT22;11117;48.644;9.006;2023-11-19T00:47:00;8.50;99.90
21906;DHT22;11117;48.644;9.006;2023-11-19T00:49:26;8.50;99.90
21906;DHT22;11117;48.644;9.006;2023-11-19T00:51:51;8.50;99.90
21906;DHT22;11117;48.644;9.006;2023-11-19T00:54:17;8.60;99.90
21906;DHT22;11117;48.644;9.006;2023-11-19T00:56:42;8.60;99.90
21906;DHT22;11117;48.644;9.006;2023-11-19T00:59:08;8.70;99.90
21906;DHT22;11117;48.644;9.006;2023-11-19T01:01:33;8.70;99.90
21906;DHT22;11117;48.644;9.006;2023-11-19T01:03:59;8.90;99.90
21906;DHT22;11117;48.644;9.006;2023-11-19T01:06:31;8.90;99.90
21906;DHT22;11117;48.644;9.006;2023-11-19T01:08:57;8.90;99.90
21906;DHT22;11117;48.644;9.006;2023-11-19T01:11:23;9.00;99.90
21906;DHT22;11117;48.644;9.006;2023-11-19T01:13:49;9.00;99.90
21906;DHT22;11117;48.644;9.006;2023-11-19T01:16:15;9.10;99.90
21906;DHT22;11117;48.644;9.006;2023-11-19T01:18:41;9.10;99.90
21906;DHT22;11117;48.644;9.006;2023-11-19T01:21:06;9.10;99.90
21906;DHT22;11117;48.644;9.006;2023-11-19T01:23:32;9.10;99.90
21906;DHT22;11117;48.644;9.006;2023-11-19T01:25:58;9.20;99.90
21906;DHT22;11117;48.644;9.006;2023-11-19T01:28:24;9.30;99.90
21906;DHT22;11117;48.644;9.006;2023-11-19T01:30:52;9.30;99.90
21906;DHT22;11117;48.644;9.006;2023-11-19T01:33:18;9.40;99.90
21906;DHT22;11117;48.644;9.006;2023-11-19T01:35:44;9.50;99.90
21906;DHT22;11117;48.644;9.006;2023-11-19T01:38:09;9.40;99.90
21906;DHT22;11117;48.644;9.006;2023-11-19T01:40:35;9.40;99.90
21906;DHT22;11117;48.644;9.006;2023-11-19T01:43:00;9.30;99.90
21906;DHT22;11117;48.644;9.006;2023-11-19T01:45:30;9.20;99.90
21906;DHT22;11117;48.644;9.006;2023-11-19T01:47:57;9.10;99.90
21906;DHT22;11117;48.644;9.006;2023-11-19T01:50:24;9.10;99.90
21906;DHT22;11117;48.644;9.006;2023-11-19T01:52:51;9.10;99.90
21906;DHT22;11117;48.644;9.006;2023-11-19T01:55:17;9.10;99.90
21906;DHT22;11117;48.644;9.006;2023-11-19T01:57:45;9.10;99.90
21906;DHT22;11117;48.644;9.006;2023-11-19T02:00:12;9.10;99.90
21906;DHT22;11117;48.644;9.006;2023-11-19T02:02:38;9.20;99.90
21906;DHT22;11117;48.644;9.006;2023-11-19T02:05:04;9.20;99.90
21906;DHT22;11117;48.644;9.006;2023-11-19T02:07:29;9.20;99.90
21906;DHT22;11117;48.644;9.006;2023-11-19T02:09:55;9.30;99.90
21906;DHT22;11117;48.644;9.006;2023-11-19T02:12:20;9.30;99.90
21906;DHT22;11117;48.644;9.006;2023-11-19T02:14:46;9.20;99.90
21906;DHT22;11117;48.644;9.006;2023-11-19T02:17:30;9.20;99.90
21906;DHT22;11117;48.644;9.006;2023-11-19T02:19:56;9.20;99.90
21906;DHT22;11117;48.644;9.006;2023-11-19T02:22:22;9.20;99.90
21906;DHT22;11117;48.644;9.006;2023-11-19T02:24:51;9.20;99.90
21906;DHT22;11117;48.644;9.006;2023-11-19T02:30:09;9.40;99.90
21906;DHT22;11117;48.644;9.006;2023-11-19T02:32:35;9.40;99.90
21906;DHT22;11117;48.644;9.006;2023-11-19T02:35:01;9.40;99.90
21906;DHT22;11117;48.644;9.006;2023-11-19T02:37:26;9.50;99.90
21906;DHT22;11117;48.644;9.006;2023-11-19T02:39:52;9.40;99.90
21906;DHT22;11117;48.644;9.006;2023-11-19T02:42:17;9.40;99.90
21906;DHT22;11117;48.644;9.006;2023-11-19T02:44:44;9.50;99.90
21906;DHT22;11117;48.644;9.006;2023-11-19T02:47:10;9.50;99.90
21906;DHT22;11117;48.644;9.006;2023-11-19T02:49:35;9.50;99.90
21906;DHT22;11117;48.644;9.006;2023-11-19T02:52:01;9.50;99.90
21906;DHT22;11117;48.644;9.006;2023-11-19T02:54:26;9.60;99.90
21906;DHT22;11117;48.644;9.006;2023-11-19T02:56:52;9.60;99.90
21906;DHT22;11117;48.644;9.006;2023-11-19T02:59:17;9.60;99.90
21906;DHT22;11117;48.644;9.006;2023-11-19T03:01:43;9.60;99.90
21906;DHT22;11117;48.644;9.006;2023-11-19T03:04:08;9.60;99.90
21906;DHT22;11117;48.644;9.006;2023-11-19T03:06:34;9.60;99.90
21906;DHT22;11117;48.644;9.006;2023-11-19T03:08:59;9.70;99.90
21906;DHT22;11117;48.644;9.006;2023-11-19T03:11:25;9.70;99.90
21906;DHT22;11117;48.644;9.006;2023-11-19T03:13:50;9.70;99.90
21906;DHT22;11117;48.644;9.006;2023-11-19T03:16:16;9.70;99.90
21906;DHT22;11117;48.644;9.006;2023-11-19T03:18:41;9.70;99.90
21906;DHT22;11117;48.644;9.006;2023-11-19T03:21:07;9.70;99.90
21906;DHT22;11117;48.644;9.006;2023-11-19T03:23:32;9.70;99.90
21906;DHT22;11117;48.644;9.006;2023-11-19T03:25:58;9.80;99.90
21906;DHT22;11117;48.644;9.006;2023-11-19T03:28:23;9.80;99.90
21906;DHT22;11117;48.644;9.006;2023-11-19T03:30:49;9.80;99.90
21906;DHT22;11117;48.644;9.006;2023-11-19T03:33:14;9.90;99.90
21906;DHT22;11117;48.644;9.006;2023-11-19T03:35:40;9.90;99.90
21906;DHT22;11117;48.644;9.006;2023-11-19T03:38:05;10.00;99.90
21906;DHT22;11117;48.644;9.006;2023-11-19T03:40:31;10.00;99.90
21906;DHT22;11117;48.644;9.006;2023-11-19T03:42:57;10.00;99.90
21906;DHT22;11117;48.644;9.006;2023-11-19T03:45:22;10.00;99.90
21906;DHT22;11117;48.644;9.006;2023-11-19T03:47:48;9.90;99.90
21906;DHT22;11117;48.644;9.006;2023-11-19T03:50:13;10.00;99.90
21906;DHT22;11117;48.644;9.006;2023-11-19T03:52:39;10.00;99.90
21906;DHT22;11117;48.644;9.006;2023-11-19T03:55:05;10.00;99.90
21906;DHT22;11117;48.644;9.006;2023-11-19T03:57:30;10.10;99.90
21906;DHT22;11117;48.644;9.006;2023-11-19T03:59:56;10.10;99.90
21906;DHT22;11117;48.644;9.006;2023-11-19T04:02:21;10.10;99.90
21906;DHT22;11117;48.644;9.006;2023-11-19T04:04:47;10.10;99.90
21906;DHT22;11117;48.644;9.006;2023-11-19T04:07:12;10.20;99.90
21906;DHT22;11117;48.644;9.006;2023-11-19T04:09:38;10.30;99.90
21906;DHT22;11117;48.644;9.006;2023-11-19T04:12:04;10.40;99.90
21906;DHT22;11117;48.644;9.006;2023-11-19T04:14:29;10.40;99.90
21906;DHT22;11117;48.644;9.006;2023-11-19T04:16:55;10.40;99.90
21906;DHT22;11117;48.644;9.006;2023-11-19T04:19:20;10.40;99.90
21906;DHT22;11117;48.644;9.006;2023-11-19T04:21:46;10.30;99.90
21906;DHT22;11117;48.644;9.006;2023-11-19T04:24:12;10.40;99.90
21906;DHT22;11117;48.644;9.006;2023-11-19T04:26:41;10.30;99.90
21906;DHT22;11117;48.644;9.006;2023-11-19T04:29:09;10.30;99.90
21906;DHT22;11117;48.644;9.006;2023-11-19T04:31:34;10.30;99.90
21906;DHT22;11117;48.644;9.006;2023-11-19T04:34:00;10.40;99.90
21906;DHT22;11117;48.644;9.006;2023-11-19T04:36:26;10.40;99.90
21906;DHT22;11117;48.644;9.006;2023-11-19T04:38:51;10.50;99.90
21906;DHT22;11117;48.644;9.006;2023-11-19T04:41:17;10.60;99.90
21906;DHT22;11117;48.644;9.006;2023-11-19T04:43:42;10.70;99.90
21906;DHT22;11117;48.644;9.006;2023-11-19T04:46:09;10.80;99.90
21906;DHT22;11117;48.644;9.006;2023-11-19T04:48:35;10.80;99.90
21906;DHT22;11117;48.644;9.006;2023-11-19T04:51:00;10.90;99.90
21906;DHT22;11117;48.644;9.006;2023-11-19T04:53:26;10.90;99.90
21906;DHT22;11117;48.644;9.006;2023-11-19T04:55:51;10.80;99.90
21906;DHT22;11117;48.644;9.006;2023-11-19T04:58:17;10.90;99.90
21906;DHT22;11117;48.644;9.006;2023-11-19T05:00:42;10.90;99.90
21906;DHT22;11117;48.644;9.006;2023-11-19T05:03:08;11.00;99.90
21906;DHT22;11117;48.644;9.006;2023-11-19T05:05:33;11.00;99.90
21906;DHT22;11117;48.644;9.006;2023-11-19T05:07:59;11.00;99.90
21906;DHT22;11117;48.644;9.006;2023-11-19T05:10:24;11.10;99.90
21906;DHT22;11117;48.644;9.006;2023-11-19T05:12:51;11.10;99.90
21906;DHT22;11117;48.644;9.006;2023-11-19T05:15:16;11.10;99.90
21906;DHT22;11117;48.644;9.006;2023-11-19T05:17:42;11.20;99.90
21906;DHT22;11117;48.644;9.006;2023-11-19T05:20:08;11.20;99.90
21906;DHT22;11117;48.644;9.006;2023-11-19T05:22:33;11.30;99.90
21906;DHT22;11117;48.644;9.006;2023-11-19T05:24:59;11.20;99.90
21906;DHT22;11117;48.644;9.006;2023-11-19T05:27:25;11.30;99.90
21906;DHT22;11117;48.644;9.006;2023-11-19T05:29:50;11.20;99.90
21906;DHT22;11117;48.644;9.006;2023-11-19T05:32:16;11.20;99.90
21906;DHT22;11117;48.644;9.006;2023-11-19T05:34:41;11.30;99.90
21906;DHT22;11117;48.644;9.006;2023-11-19T05:37:07;11.30;99.90
21906;DHT22;11117;48.644;9.006;2023-11-19T05:39:32;11.30;99.90
21906;DHT22;11117;48.644;9.006;2023-11-19T05:41:58;11.40;99.90
21906;DHT22;11117;48.644;9.006;2023-11-19T05:44:23;11.40;99.90
21906;DHT22;11117;48.644;9.006;2023-11-19T05:46:49;11.40;99.90
21906;DHT22;11117;48.644;9.006;2023-11-19T05:49:14;11.40;99.90
21906;DHT22;11117;48.644;9.006;2023-11-19T05:51:40;11.40;99.90
21906;DHT22;11117;48.644;9.006;2023-11-19T05:54:10;11.30;99.90
21906;DHT22;11117;48.644;9.006;2023-11-19T05:56:36;11.30;99.90
21906;DHT22;11117;48.644;9.006;2023-11-19T05:59:01;11.30;99.90
21906;DHT22;11117;48.644;9.006;2023-11-19T06:01:30;11.30;99.90
21906;DHT22;11117;48.644;9.006;2023-11-19T06:03:55;11.20;99.90
21906;DHT22;11117;48.644;9.006;2023-11-19T06:06:21;11.30;99.90
21906;DHT22;11117;48.644;9.006;2023-11-19T06:08:46;11.30;99.90
21906;DHT22;11117;48.644;9.006;2023-11-19T06:11:12;11.30;99.90
21906;DHT22;11117;48.644;9.006;2023-11-19T06:13:38;11.20;99.90
21906;DHT22;11117;48.644;9.006;2023-11-19T06:16:04;11.20;99.90
21906;DHT22;11117;48.644;9.006;2023-11-19T06:18:29;11.20;99.90
21906;DHT22;11117;48.644;9.006;2023-11-19T06:20:55;11.20;99.90
21906;DHT22;11117;48.644;9.006;2023-11-19T06:23:20;11.20;99.90
21906;DHT22;11117;48.644;9.006;2023-11-19T06:25:46;11.20;99.90
21906;DHT22;11117;48.644;9.006;2023-11-19T06:28:11;11.20;99.90
21906;DHT22;11117;48.644;9.006;2023-11-19T06:30:37;11.20;99.90
21906;DHT22;11117;48.644;9.006;2023-11-19T06:33:03;11.30;99.90
21906;DHT22;11117;48.644;9.006;2023-11-19T06:35:28;11.30;99.90
21906;DHT22;11117;48.644;9.006;2023-11-19T06:37:54;11.30;99.90
21906;DHT22;11117;48.644;9.006;2023-11-19T06:40:19;11.40;99.90
21906;DHT22;11117;48.644;9.006;2023-11-19T06:42:45;11.40;99.90
21906;DHT22;11117;48.644;9.006;2023-11-19T06:45:10;11.40;99.90
21906;DHT22;11117;48.644;9.006;2023-11-19T06:47:36;11.50;99.90
21906;DHT22;11117;48.644;9.006;2023-11-19T06:50:01;11.50;99.90
21906;DHT22;11117;48.644;9.006;2023-11-19T06:52:27;11.50;99.90
21906;DHT22;11117;48.644;9.006;2023-11-19T06:54:52;11.50;99.90
21906;DHT22;11117;48.644;9.006;2023-11-19T06:57:18;11.60;99.90
21906;DHT22;11117;48.644;9.006;2023-11-19T06:59:43;11.50;99.90
21906;DHT22;11117;48.644;9.006;2023-11-19T07:02:09;11.50;99.90
21906;DHT22;11117;48.644;9.006;2023-11-19T07:04:34;11.40;99.90
21906;DHT22;11117;48.644;9.006;2023-11-19T07:07:00;11.40;99.90
21906;DHT22;11117;48.644;9.006;2023-11-19T07:09:26;11.30;99.90
21906;DHT22;11117;48.644;9.006;2023-11-19T07:11:51;11.30;99.90
21906;DHT22;11117;48.644;9.006;2023-11-19T07:14:17;11.30;99.90
21906;DHT22;11117;48.644;9.006;2023-11-19T07:16:43;11.30;99.90
21906;DHT22;11117;48.644;9.006;2023-11-19T07:19:09;11.30;99.90
21906;DHT22;11117;48.644;9.006;2023-11-19T07:21:35;11.40;99.90
21906;DHT22;11117;48.644;9.006;2023-11-19T07:24:02;11.50;99.90
21906;DHT22;11117;48.644;9.006;2023-11-19T07:26:30;11.50;99.90
21906;DHT22;11117;48.644;9.006;2023-11-19T07:28:56;11.50;99.90
21906;DHT22;11117;48.644;9.006;2023-11-19T07:31:21;11.50;99.90
21906;DHT22;11117;48.644;9.006;2023-11-19T07:33:47;11.50;99.90
21906;DHT22;11117;48.644;9.006;2023-11-19T07:36:12;11.50;99.90
21906;DHT22;11117;48.644;9.006;2023-11-19T07:38:38;11.60;99.90
21906;DHT22;11117;48.644;9.006;2023-11-19T07:41:07;11.70;99.90
21906;DHT22;11117;48.644;9.006;2023-11-19T07:43:32;11.70;99.90
21906;DHT22;11117;48.644;9.006;2023-11-19T07:45:58;11.70;99.90
21906;DHT22;11117;48.644;9.006;2023-11-19T07:48:23;11.80;99.90
21906;DHT22;11117;48.644;9.006;2023-11-19T07:50:49;11.90;99.90
21906;DHT22;11117;48.644;9.006;2023-11-19T07:53:15;11.90;99.90
21906;DHT22;11117;48.644;9.006;2023-11-19T07:55:41;11.90;99.90
21906;DHT22;11117;48.644;9.006;2023-11-19T07:58:06;11.90;99.90
21906;DHT22;11117;48.644;9.006;2023-11-19T08:00:32;11.90;99.90
21906;DHT22;11117;48.644;9.006;2023-11-19T08:02:57;11.90;99.90
21906;DHT22;11117;48.644;9.006;2023-11-19T08:05:23;11.90;99.90
21906;DHT22;11117;48.644;9.006;2023-11-19T08:07:48;11.90;99.90
21906;DHT22;11117;48.644;9.006;2023-11-19T08:10:14;11.80;99.90
21906;DHT22;11117;48.644;9.006;2023-11-19T08:12:39;11.90;99.90
21906;DHT22;11117;48.644;9.006;2023-11-19T08:15:05;12.00;99.90
21906;DHT22;11117;48.644;9.006;2023-11-19T08:17:31;11.90;99.90
21906;DHT22;11117;48.644;9.006;2023-11-19T08:19:56;12.00;99.90
21906;DHT22;11117;48.644;9.006;2023-11-19T08:22:22;12.00;99.90
21906;DHT22;11117;48.644;9.006;2023-11-19T08:24:48;12.10;99.90
21906;DHT22;11117;48.644;9.006;2023-11-19T08:27:13;12.20;99.90
21906;DHT22;11117;48.644;9.006;2023-11-19T08:29:39;12.10;99.90
21906;DHT22;11117;48.644;9.006;2023-11-19T08:32:05;12.20;99.90
21906;DHT22;11117;48.644;9.006;2023-11-19T08:34:31;12.20;99.90
21906;DHT22;11117;48.644;9.006;2023-11-19T08:36:56;12.30;99.90
21906;DHT22;11117;48.644;9.006;2023-11-19T08:39:22;12.50;99.90
21906;DHT22;11117;48.644;9.006;2023-11-19T08:41:47;12.70;99.90
21906;DHT22;11117;48.644;9.006;2023-11-19T08:44:13;12.70;99.90
21906;DHT22;11117;48.644;9.006;2023-11-19T08:46:38;12.90;99.90
21906;DHT22;11117;48.644;9.006;2023-11-19T08:49:04;13.10;99.90
21906;DHT22;11117;48.644;9.006;2023-11-19T08:51:33;13.20;99.90
21906;DHT22;11117;48.644;9.006;2023-11-19T08:53:58;13.20;99.90
21906;DHT22;11117;48.644;9.006;2023-11-19T08:56:24;13.30;99.90
21906;DHT22;11117;48.644;9.006;2023-11-19T08:58:49;13.30;99.90
21906;DHT22;11117;48.644;9.006;2023-11-19T09:01:15;13.40;99.90
21906;DHT22;11117;48.644;9.006;2023-11-19T09:03:40;13.40;99.90
21906;DHT22;11117;48.644;9.006;2023-11-19T09:06:06;13.50;99.90
21906;DHT22;11117;48.644;9.006;2023-11-19T09:08:32;13.60;99.90
21906;DHT22;11117;48.644;9.006;2023-11-19T09:10:57;13.70;99.90
21906;DHT22;11117;48.644;9.006;2023-11-19T09:13:23;13.90;99.90
21906;DHT22;11117;48.644;9.006;2023-11-19T09:15:48;14.00;99.90
21906;DHT22;11117;48.644;9.006;2023-11-19T09:18:14;14.20;99.90
21906;DHT22;11117;48.644;9.006;2023-11-19T09:20:39;14.30;99.90
21906;DHT22;11117;48.644;9.006;2023-11-19T09:23:05;14.30;99.90
21906;DHT22;11117;48.644;9.006;2023-11-19T09:25:31;14.50;99.90
21906;DHT22;11117;48.644;9.006;2023-11-19T09:27:56;14.60;99.90
21906;DHT22;11117;48.644;9.006;2023-11-19T09:30:22;14.50;99.90
21906;DHT22;11117;48.644;9.006;2023-11-19T09:32:47;14.60;99.90
21906;DHT22;11117;48.644;9.006;2023-11-19T09:35:13;14.70;99.90
21906;DHT22;11117;48.644;9.006;2023-11-19T09:37:38;14.70;99.90
21906;DHT22;11117;48.644;9.006;2023-11-19T09:40:05;14.70;99.90
21906;DHT22;11117;48.644;9.006;2023-11-19T09:42:43;14.70;99.90
21906;DHT22;11117;48.644;9.006;2023-11-19T09:45:16;14.70;99.90
21906;DHT22;11117;48.644;9.006;2023-11-19T09:47:46;14.80;99.90
21906;DHT22;11117;48.644;9.006;2023-11-19T09:50:17;14.60;99.90
21906;DHT22;11117;48.644;9.006;2023-11-19T09:52:43;14.70;99.90
21906;DHT22;11117;48.644;9.006;2023-11-19T09:55:08;14.70;99.90
21906;DHT22;11117;48.644;9.006;2023-11-19T09:57:35;14.90;99.90
21906;DHT22;11117;48.644;9.006;2023-11-19T10:00:01;15.00;99.90
21906;DHT22;11117;48.644;9.006;2023-11-19T10:02:27;14.90;99.90
21906;DHT22;11117;48.644;9.006;2023-11-19T10:04:56;14.90;99.90
21906;DHT22;11117;48.644;9.006;2023-11-19T10:07:22;14.70;99.90
21906;DHT22;11117;48.644;9.006;2023-11-19T10:09:48;14.80;99.90
21906;DHT22;11117;48.644;9.006;2023-11-19T10:12:13;14.80;99.90
21906;DHT22;11117;48.644;9.006;2023-11-19T10:14:39;14.60;99.90
21906;DHT22;11117;48.644;9.006;2023-11-19T10:17:07;14.50;99.90
21906;DHT22;11117;48.644;9.006;2023-11-19T10:19:33;14.50;99.90
21906;DHT22;11117;48.644;9.006;2023-11-19T10:22:04;14.60;99.90
21906;DHT22;11117;48.644;9.006;2023-11-19T10:24:33;14.70;99.90
21906;DHT22;11117;48.644;9.006;2023-11-19T10:27:00;14.90;99.90
21906;DHT22;11117;48.644;9.006;2023-11-19T10:29:25;15.00;99.90
21906;DHT22;11117;48.644;9.006;2023-11-19T10:31:57;14.90;99.90
21906;DHT22;11117;48.644;9.006;2023-11-19T10:34:26;14.80;99.90
21906;DHT22;11117;48.644;9.006;2023-11-19T10:36:52;14.90;99.90
21906;DHT22;11117;48.644;9.006;2023-11-19T10:39:18;14.90;99.90
21906;DHT22;11117;48.644;9.006;2023-11-19T10:41:44;15.00;99.90
21906;DHT22;11117;48.644;9.006;2023-11-19T10:44:09;15.00;99.90
21906;DHT22;11117;48.644;9.006;2023-11-19T10:46:39;15.30;99.90
21906;DHT22;11117;48.644;9.006;2023-11-19T10:49:09;15.40;99.90
21906;DHT22;11117;48.644;9.006;2023-11-19T10:51:34;15.40;99.90
21906;DHT22;11117;48.644;9.006;2023-11-19T10:54:04;15.40;99.90
21906;DHT22;11117;48.644;9.006;2023-11-19T10:56:33;15.50;99.90
21906;DHT22;11117;48.644;9.006;2023-11-19T10:59:00;15.40;99.90
21906;DHT22;11117;48.644;9.006;2023-11-19T11:01:27;15.30;99.90
21906;DHT22;11117;48.644;9.006;2023-11-19T11:03:55;15.30;99.90
21906;DHT22;11117;48.644;9.006;2023-11-19T11:06:23;15.30;99.90
21906;DHT22;11117;48.644;9.006;2023-11-19T11:08:50;15.10;99.90
21906;DHT22;11117;48.644;9.006;2023-11-19T11:11:16;15.00;99.90
21906;DHT22;11117;48.644;9.006;2023-11-19T11:13:43;14.90;99.90
21906;DHT22;11117;48.644;9.006;2023-11-19T11:16:09;14.80;99.90
21906;DHT22;11117;48.644;9.006;2023-11-19T11:18:35;14.80;99.90
21906;DHT22;11117;48.644;9.006;2023-11-19T11:21:11;14.60;99.90
21906;DHT22;11117;48.644;9.006;2023-11-19T11:26:50;14.40;99.90
21906;DHT22;11117;48.644;9.006;2023-11-19T11:29:40;14.30;99.90
21906;DHT22;11117;48.644;9.006;2023-11-19T11:35:08;14.40;99.90
21906;DHT22;11117;48.644;9.006;2023-11-19T11:37:47;14.40;99.90
21906;DHT22;11117;48.644;9.006;2023-11-19T11:40:17;14.50;99.90
21906;DHT22;11117;48.644;9.006;2023-11-19T11:42:43;14.40;99.90
21906;DHT22;11117;48.644;9.006;2023-11-19T11:45:13;14.40;99.90
21906;DHT22;11117;48.644;9.006;2023-11-19T11:50:20;14.50;99.90
21906;DHT22;11117;48.644;9.006;2023-11-19T11:55:27;14.50;99.90
21906;DHT22;11117;48.644;9.006;2023-11-19T11:57:53;14.50;99.90
21906;DHT22;11117;48.644;9.006;2023-11-19T12:00:41;14.50;99.90
21906;DHT22;11117;48.644;9.006;2023-11-19T12:03:08;14.50;99.90
21906;DHT22;11117;48.644;9.006;2023-11-19T12:05:40;14.50;99.90
21906;DHT22;11117;48.644;9.006;2023-11-19T12:08:07;14.70;99.90
21906;DHT22;11117;48.644;9.006;2023-11-19T12:10:37;15.00;99.90
21906;DHT22;11117;48.644;9.006;2023-11-19T12:13:06;14.80;99.90
21906;DHT22;11117;48.644;9.006;2023-11-19T12:15:31;14.90;99.90
21906;DHT22;11117;48.644;9.006;2023-11-19T12:17:57;14.80;99.90
21906;DHT22;11117;48.644;9.006;2023-11-19T12:20:26;14.80;99.90
21906;DHT22;11117;48.644;9.006;2023-11-19T12:22:53;14.90;99.90
21906;DHT22;11117;48.644;9.006;2023-11-19T12:25:19;14.90;99.90
21906;DHT22;11117;48.644;9.006;2023-11-19T12:27:49;15.00;99.90
21906;DHT22;11117;48.644;9.006;2023-11-19T12:30:33;15.10;99.90
21906;DHT22;11117;48.644;9.006;2023-11-19T12:32:58;15.20;99.90
21906;DHT22;11117;48.644;9.006;2023-11-19T12:35:24;15.30;99.90
21906;DHT22;11117;48.644;9.006;2023-11-19T12:37:50;15.20;99.90
21906;DHT22;11117;48.644;9.006;2023-11-19T12:40:18;14.90;99.90
21906;DHT22;11117;48.644;9.006;2023-11-19T12:42:48;14.90;99.90
21906;DHT22;11117;48.644;9.006;2023-11-19T12:45:14;14.90;99.90
21906;DHT22;11117;48.644;9.006;2023-11-19T12:47:39;14.90;99.90
21906;DHT22;11117;48.644;9.006;2023-11-19T12:50:05;14.90;99.90
21906;DHT22;11117;48.644;9.006;2023-11-19T12:52:31;14.70;99.90
21906;DHT22;11117;48.644;9.006;2023-11-19T12:54:57;14.80;99.90
21906;DHT22;11117;48.644;9.006;2023-11-19T12:57:38;14.80;99.90
21906;DHT22;11117;48.644;9.006;2023-11-19T13:00:05;14.80;99.90
21906;DHT22;11117;48.644;9.006;2023-11-19T13:02:53;14.70;99.90
21906;DHT22;11117;48.644;9.006;2023-11-19T13:05:34;14.50;99.90
21906;DHT22;11117;48.644;9.006;2023-11-19T13:08:04;14.50;99.90
21906;DHT22;11117;48.644;9.006;2023-11-19T13:10:31;14.60;99.90
21906;DHT22;11117;48.644;9.006;2023-11-19T13:13:05;14.50;99.90
21906;DHT22;11117;48.644;9.006;2023-11-19T13:15:32;14.50;99.90
21906;DHT22;11117;48.644;9.006;2023-11-19T13:17:57;14.50;99.90
21906;DHT22;11117;48.644;9.006;2023-11-19T13:20:23;14.60;99.90
21906;DHT22;11117;48.644;9.006;2023-11-19T13:22:55;14.70;99.90
21906;DHT22;11117;48.644;9.006;2023-11-19T13:25:21;14.80;99.90
21906;DHT22;11117;48.644;9.006;2023-11-19T13:27:46;14.80;99.90
21906;DHT22;11117;48.644;9.006;2023-11-19T13:30:12;14.80;99.90
21906;DHT22;11117;48.644;9.006;2023-11-19T13:32:38;14.80;99.90
21906;DHT22;11117;48.644;9.006;2023-11-19T13:35:04;14.80;99.90
21906;DHT22;11117;48.644;9.006;2023-11-19T13:37:29;14.70;99.90
21906;DHT22;11117;48.644;9.006;2023-11-19T13:39:55;14.50;99.90
21906;DHT22;11117;48.644;9.006;2023-11-19T13:42:20;14.40;99.90
21906;DHT22;11117;48.644;9.006;2023-11-19T13:44:46;14.40;99.90
21906;DHT22;11117;48.644;9.006;2023-11-19T13:47:11;14.30;99.90
21906;DHT22;11117;48.644;9.006;2023-11-19T13:49:37;14.10;99.90
21906;DHT22;11117;48.644;9.006;2023-11-19T13:52:03;14.00;99.90
21906;DHT22;11117;48.644;9.006;2023-11-19T13:54:28;13.90;99.90
21906;DHT22;11117;48.644;9.006;2023-11-19T13:56:56;13.90;99.90
21906;DHT22;11117;48.644;9.006;2023-11-19T13:59:22;14.00;99.90
21906;DHT22;11117;48.644;9.006;2023-11-19T14:01:47;14.00;99.90
21906;DHT22;11117;48.644;9.006;2023-11-19T14:04:13;14.00;99.90
21906;DHT22;11117;48.644;9.006;2023-11-19T14:06:38;14.00;99.90
21906;DHT22;11117;48.644;9.006;2023-11-19T14:09:06;13.90;99.90
21906;DHT22;11117;48.644;9.006;2023-11-19T14:11:33;13.90;99.90
21906;DHT22;11117;48.644;9.006;2023-11-19T14:13:58;14.00;99.90
21906;DHT22;11117;48.644;9.006;2023-11-19T14:16:27;13.90;99.90
21906;DHT22;11117;48.644;9.006;2023-11-19T14:18:53;13.80;99.90
21906;DHT22;11117;48.644;9.006;2023-11-19T14:21:18;13.90;99.90
21906;DHT22;11117;48.644;9.006;2023-11-19T14:23:44;13.90;99.90
21906;DHT22;11117;48.644;9.006;2023-11-19T14:26:09;14.00;99.90
21906;DHT22;11117;48.644;9.006;2023-11-19T14:28:35;13.90;99.90
21906;DHT22;11117;48.644;9.006;2023-11-19T14:31:00;13.80;99.90
21906;DHT22;11117;48.644;9.006;2023-11-19T14:33:26;13.70;99.90
21906;DHT22;11117;48.644;9.006;2023-11-19T14:35:51;13.60;99.90
21906;DHT22;11117;48.644;9.006;2023-11-19T14:38:17;13.50;99.90
21906;DHT22;11117;48.644;9.006;2023-11-19T14:40:43;13.30;99.90
21906;DHT22;11117;48.644;9.006;2023-11-19T14:43:09;13.20;99.90
21906;DHT22;11117;48.644;9.006;2023-11-19T14:45:34;13.10;99.90
21906;DHT22;11117;48.644;9.006;2023-11-19T14:48:00;12.90;99.90
21906;DHT22;11117;48.644;9.006;2023-11-19T14:50:25;12.80;99.90
21906;DHT22;11117;48.644;9.006;2023-11-19T14:52:51;12.70;99.90
21906;DHT22;11117;48.644;9.006;2023-11-19T14:55:16;12.60;99.90
21906;DHT22;11117;48.644;9.006;2023-11-19T14:57:42;12.60;99.90
21906;DHT22;11117;48.644;9.006;2023-11-19T15:00:08;12.50;99.90
21906;DHT22;11117;48.644;9.006;2023-11-19T15:02:33;12.50;99.90
21906;DHT22;11117;48.644;9.006;2023-11-19T15:04:59;12.40;99.90
21906;DHT22;11117;48.644;9.006;2023-11-19T15:07:24;12.30;99.90
21906;DHT22;11117;48.644;9.006;2023-11-19T15:09:50;12.20;99.90
21906;DHT22;11117;48.644;9.006;2023-11-19T15:12:15;12.20;99.90
21906;DHT22;11117;48.644;9.006;2023-11-19T15:14:41;12.10;99.90
21906;DHT22;11117;48.644;9.006;2023-11-19T15:17:06;12.00;99.90
21906;DHT22;11117;48.644;9.006;2023-11-19T15:19:32;12.00;99.90
21906;DHT22;11117;48.644;9.006;2023-11-19T15:21:57;11.90;99.90
21906;DHT22;11117;48.644;9.006;2023-11-19T15:24:23;11.90;99.90
21906;DHT22;11117;48.644;9.006;2023-11-19T15:26:48;11.90;99.90
21906;DHT22;11117;48.644;9.006;2023-11-19T15:29:14;11.80;99.90
21906;DHT22;11117;48.644;9.006;2023-11-19T15:31:39;11.80;99.90
21906;DHT22;11117;48.644;9.006;2023-11-19T15:34:05;11.70;99.90
21906;DHT22;11117;48.644;9.006;2023-11-19T15:36:33;11.60;99.90
21906;DHT22;11117;48.644;9.006;2023-11-19T15:38:58;11.60;99.90
21906;DHT22;11117;48.644;9.006;2023-11-19T15:41:24;11.40;99.90
21906;DHT22;11117;48.644;9.006;2023-11-19T15:43:49;11.40;99.90